Time;durP1;ratioP1;P1;durP2;ratioP2;P2;SDS_P1;SDS_P2;PMS_P1;PMS_P2;Temp;Humidity;BMP_temperature;BMP_pressure;BME280_temperature;BME280_humidity;BME280_pressure;Samples;Min_cycle;Max_cycle;Signal;HPM_P1;HPM_P2
2023/01/29 00:01:06;;;;;;;0.65;0.65;;;;;;;5.49;95.58;101936.84;4910735;29;20027;-62
2023/01/29 00:03:32;;;;;;;2.72;0.85;;;;;;;5.60;95.42;101939.34;4946218;28;20028;-62
2023/01/29 00:05:58;;;;;;;0.60;0.60;;;;;;;5.69;94.83;101942.97;4936409;29;20059;-62
2023/01/29 00:08:25;;;;;;;2.15;0.68;;;;;;;5.39;95.90;101926.28;4953684;28;20982;-62
2023/01/29 00:10:51;;;;;;;1.00;0.90;;;;;;;5.31;96.73;101931.47;4934975;28;20510;-62
2023/01/29 00:13:16;;;;;;;0.93;0.93;;;;;;;5.39;96.54;101926.28;4925986;29;20032;-61
2023/01/29 00:15:53;;;;;;;0.47;0.47;;;;;;;5.59;96.38;101916.41;4952874;28;20556;-61
2023/01/29 00:18:19;;;;;;;0.43;0.43;;;;;;;5.55;95.90;101924.19;4944951;29;20054;-63
2023/01/29 00:20:44;;;;;;;1.20;0.60;;;;;;;5.55;95.77;101915.38;4943585;28;20486;-62
2023/01/29 00:23:10;;;;;;;0.30;0.30;;;;;;;5.53;96.17;101916.44;4927505;29;20031;-60
2023/01/29 00:26:16;;;;;;;0.68;0.68;;;;;;;5.66;95.48;101911.47;4943500;29;20046;-60
2023/01/29 00:28:45;;;;;;;0.70;0.70;;;;;;;5.69;95.27;101905.56;4953614;23;20493;-66
2023/01/29 00:31:16;;;;;;;0.52;0.52;;;;;;;5.69;95.84;101908.22;4952680;29;20066;-66
2023/01/29 00:33:42;;;;;;;2.50;0.57;;;;;;;5.53;96.62;101895.09;4954309;28;20031;-66
2023/01/29 00:36:10;;;;;;;1.17;0.75;;;;;;;5.53;96.94;101881.72;4937761;29;20082;-66
2023/01/29 00:38:37;;;;;;;0.73;0.73;;;;;;;5.57;96.51;101889.97;4950707;28;20448;-66
2023/01/29 00:46:35;;;;;;;0.73;0.73;;;;;;;5.57;97.48;101883.84;4960178;28;20542;-66
2023/01/29 00:49:01;;;;;;;0.43;0.43;;;;;;;5.60;97.51;101881.38;4967812;28;20055;-67
2023/01/29 00:51:27;;;;;;;0.60;0.52;;;;;;;5.65;97.16;101885.84;4951585;28;20054;-66
2023/01/29 00:53:57;;;;;;;0.63;0.47;;;;;;;5.62;97.70;101875.72;4958947;28;20039;-66
2023/01/29 00:56:26;;;;;;;0.60;0.60;;;;;;;5.58;97.73;101872.84;4952625;29;20031;-67
2023/01/29 00:58:52;;;;;;;0.82;0.40;;;;;;;5.64;97.25;101873.56;4951865;28;20082;-67
2023/01/29 01:03:04;;;;;;;0.50;0.50;;;;;;;5.64;97.19;101874.38;4966986;28;20066;-67
2023/01/29 01:04:04;;;;;;;2.92;0.85;;;;;;;5.65;97.39;101878.63;4947014;29;20039;-66
2023/01/29 01:06:29;;;;;;;0.65;0.65;;;;;;;5.63;97.96;101888.81;4951406;28;20041;-66
2023/01/29 01:11:39;;;;;;;0.50;0.50;;;;;;;5.65;97.75;101881.31;4952742;29;20600;-65
2023/01/29 01:14:04;;;;;;;0.50;0.50;;;;;;;5.65;97.82;101883.97;4950095;29;20085;-65
2023/01/29 01:16:30;;;;;;;0.73;0.73;;;;;;;5.67;98.16;101887.13;4964779;28;20027;-65
2023/01/29 01:18:55;;;;;;;0.43;0.43;;;;;;;5.65;97.78;101885.84;4953100;28;20035;-65
2023/01/29 01:21:21;;;;;;;0.57;0.57;;;;;;;5.56;98.71;101887.56;4943422;28;20031;-65
2023/01/29 01:23:46;;;;;;;0.30;0.30;;;;;;;5.67;98.32;101881.78;4963246;28;20035;-66
2023/01/29 01:26:12;;;;;;;0.60;0.60;;;;;;;5.61;99.14;101888.31;4964695;28;20031;-67
2023/01/29 01:28:38;;;;;;;0.38;0.38;;;;;;;5.74;98.60;101884.91;4952350;29;20496;-66
2023/01/29 01:31:11;;;;;;;0.60;0.60;;;;;;;5.44;99.80;101880.81;4951264;29;20035;-66
2023/01/29 01:33:37;;;;;;;0.55;0.55;;;;;;;5.43;99.99;101897.94;4947831;29;20066;-66
2023/01/29 01:36:03;;;;;;;0.57;0.57;;;;;;;5.45;100.00;101887.75;4951116;29;20043;-66
2023/01/29 01:38:29;;;;;;;0.55;0.55;;;;;;;5.57;99.66;101889.19;4950927;28;20118;-66
2023/01/29 01:40:54;;;;;;;1.40;0.70;;;;;;;5.40;100.00;101898.50;4950326;28;20126;-66
2023/01/29 01:43:20;;;;;;;2.05;0.63;;;;;;;5.08;100.00;101895.75;4949947;29;20429;-66
2023/01/29 01:45:45;;;;;;;0.30;0.30;;;;;;;5.19;100.00;101899.06;4949388;29;20027;-66
2023/01/29 01:48:20;;;;;;;0.80;0.80;;;;;;;5.19;100.00;101899.84;4951826;28;20066;-65
2023/01/29 01:50:46;;;;;;;0.95;0.60;;;;;;;5.05;100.00;101898.97;4951226;28;20102;-66
2023/01/29 01:53:17;;;;;;;1.00;1.00;;;;;;;5.23;100.00;101895.53;4949807;29;20046;-66
2023/01/29 01:55:47;;;;;;;;;;;;;;;5.29;100.00;101889.03;4950238;28;20094;-66
2023/01/29 01:58:21;;;;;;;0.65;0.65;;;;;;;5.19;100.00;101889.19;4962854;28;19918;-66
2023/01/29 02:00:47;;;;;;;0.20;0.20;;;;;;;5.31;100.00;101892.22;4949358;28;20400;-66
2023/01/29 02:11:40;;;;;;;0.47;0.47;;;;;;;5.61;100.00;101866.94;4942670;29;20090;-66
2023/01/29 02:14:06;;;;;;;0.82;0.82;;;;;;;5.33;100.00;101868.69;4949940;29;20035;-64
2023/01/29 02:16:35;;;;;;;0.43;0.43;;;;;;;5.24;100.00;101880.31;4950578;29;20023;-67
2023/01/29 02:19:08;;;;;;;0.90;0.60;;;;;;;5.42;100.00;101871.47;4966776;28;20459;-66
2023/01/29 02:21:39;;;;;;;0.60;0.60;;;;;;;5.49;100.00;101866.59;4946210;29;20082;-66
2023/01/29 02:24:32;;;;;;;2.75;0.60;;;;;;;5.72;100.00;101871.03;4948133;28;20043;-66
2023/01/29 02:27:04;;;;;;;1.13;0.68;;;;;;;5.78;100.00;101861.84;4959298;28;20043;-66
2023/01/29 02:29:35;;;;;;;;;;;;;;;5.53;100.00;101854.25;4949949;29;20043;-66
2023/01/29 02:32:19;;;;;;;0.30;0.30;;;;;;;5.67;100.00;101854.28;4943806;29;19922;-64
2023/01/29 02:38:18;;;;;;;0.55;0.55;;;;;;;5.63;100.00;101845.28;4947796;29;20085;-66
2023/01/29 02:40:48;;;;;;;0.63;0.63;;;;;;;5.62;100.00;101843.66;4926503;29;20044;-66
2023/01/29 02:43:34;;;;;;;0.30;0.30;;;;;;;5.47;100.00;101861.53;4950801;29;20156;-66
2023/01/29 02:46:07;;;;;;;0.47;0.47;;;;;;;5.37;100.00;101852.88;4950012;28;20036;-66
2023/01/29 02:48:54;;;;;;;0.20;0.20;;;;;;;5.49;100.00;101846.03;4966172;28;20547;-66
2023/01/29 02:51:43;;;;;;;0.50;0.50;;;;;;;5.70;100.00;101856.38;4949318;29;20031;-65
2023/01/29 02:54:29;;;;;;;1.30;0.60;;;;;;;5.63;100.00;101847.94;4941303;29;20416;-66
2023/01/29 02:57:04;;;;;;;1.95;1.00;;;;;;;5.67;100.00;101846.28;4950778;29;20039;-66
2023/01/29 03:00:14;;;;;;;0.40;0.40;;;;;;;5.69;100.00;101839.53;4949956;28;20045;-66
2023/01/29 03:02:49;;;;;;;0.30;0.30;;;;;;;5.75;100.00;101834.94;4912937;29;20047;-66
2023/01/29 03:05:22;;;;;;;1.20;0.95;;;;;;;5.54;100.00;101826.44;4950355;29;20035;-66
2023/01/29 03:07:52;;;;;;;0.60;0.60;;;;;;;5.57;100.00;101817.06;4947022;29;20041;-67
2023/01/29 03:10:34;;;;;;;0.40;0.40;;;;;;;5.59;100.00;101812.22;4965130;28;20051;-66
2023/01/29 03:13:12;;;;;;;0.28;0.28;;;;;;;5.73;100.00;101803.13;4948606;28;20046;-65
2023/01/29 03:15:45;;;;;;;0.40;0.40;;;;;;;5.72;100.00;101806.91;4949054;29;20065;-66
2023/01/29 03:18:53;;;;;;;0.50;0.50;;;;;;;5.71;100.00;101805.31;4950582;29;20077;-67
2023/01/29 03:32:50;;;;;;;0.55;0.55;;;;;;;5.64;100.00;101793.41;4947332;29;20039;-66
2023/01/29 03:35:35;;;;;;;0.30;0.30;;;;;;;5.78;100.00;101791.56;4932370;29;20042;-66
2023/01/29 03:38:03;;;;;;;4.47;0.65;;;;;;;5.74;100.00;101786.03;4965591;28;20294;-66
2023/01/29 03:40:35;;;;;;;0.65;0.65;;;;;;;5.57;100.00;101795.69;4950712;28;20023;-66
2023/01/29 03:43:15;;;;;;;0.60;0.60;;;;;;;5.69;100.00;101788.00;4950162;28;20793;-66
2023/01/29 03:46:02;;;;;;;0.30;0.30;;;;;;;5.73;100.00;101778.31;4933051;29;20059;-66
2023/01/29 03:48:40;;;;;;;0.52;0.52;;;;;;;5.79;100.00;101787.84;4933963;29;20389;-66
2023/01/29 03:51:29;;;;;;;0.32;0.32;;;;;;;5.87;100.00;101776.47;4953518;29;20373;-66
2023/01/29 03:54:17;;;;;;;0.40;0.40;;;;;;;5.95;100.00;101778.47;4932975;29;20067;-66
2023/01/29 03:56:56;;;;;;;0.40;0.40;;;;;;;5.95;100.00;101776.59;4967864;28;20484;-66
2023/01/29 03:59:38;;;;;;;0.60;0.60;;;;;;;5.96;100.00;101774.72;4951888;28;20139;-64
2023/01/29 04:02:41;;;;;;;0.90;0.50;;;;;;;5.91;100.00;101769.44;4953093;29;20054;-66
2023/01/29 04:05:19;;;;;;;2.95;0.98;;;;;;;5.80;100.00;101768.03;4970082;28;20555;-66
2023/01/29 04:08:03;;;;;;;0.28;0.28;;;;;;;5.84;100.00;101766.38;4953430;29;20749;-66
2023/01/29 04:10:34;;;;;;;1.15;0.90;;;;;;;5.52;100.00;101766.41;4968055;28;20032;-66
2023/01/29 04:13:07;;;;;;;0.20;0.20;;;;;;;5.53;100.00;101765.28;4949634;29;20046;-66
2023/01/29 04:15:41;;;;;;;0.43;0.43;;;;;;;5.49;100.00;101760.56;4968294;28;20114;-66
2023/01/29 04:18:07;;;;;;;0.80;0.80;;;;;;;5.62;100.00;101753.63;4952486;29;20412;-65
2023/01/29 04:20:45;;;;;;;0.40;0.40;;;;;;;5.61;100.00;101756.63;4934663;29;20057;-66
2023/01/29 04:23:37;;;;;;;0.20;0.20;;;;;;;5.52;100.00;101745.78;4952630;29;20485;-64
2023/01/29 04:26:27;;;;;;;0.40;0.40;;;;;;;5.36;100.00;101741.81;4937877;28;20054;-66
2023/01/29 04:29:16;;;;;;;0.30;0.30;;;;;;;5.38;100.00;101745.00;4965781;28;20047;-66
2023/01/29 04:31:55;;;;;;;0.30;0.30;;;;;;;5.46;100.00;101737.09;4959324;28;20047;-65
2023/01/29 04:34:27;;;;;;;0.20;0.20;;;;;;;5.52;100.00;101750.38;4951631;29;20050;-66
2023/01/29 04:37:03;;;;;;;0.50;0.50;;;;;;;5.42;100.00;101757.44;4966925;28;20031;-66
2023/01/29 04:39:45;;;;;;;0.57;0.57;;;;;;;5.32;100.00;101746.94;4948519;29;20034;-66
2023/01/29 04:42:17;;;;;;;0.30;0.30;;;;;;;5.34;100.00;101752.78;4949517;28;20046;-66
2023/01/29 04:44:48;;;;;;;0.82;0.82;;;;;;;5.36;100.00;101757.84;4951264;29;20082;-66
2023/01/29 04:47:27;;;;;;;0.60;0.22;;;;;;;5.29;100.00;101755.53;4953082;29;20031;-66
2023/01/29 04:50:00;;;;;;;0.50;0.50;;;;;;;5.47;100.00;101753.91;4944777;29;20050;-66
2023/01/29 04:52:49;;;;;;;0.20;0.20;;;;;;;5.44;100.00;101771.31;4952026;28;20451;-65
2023/01/29 04:55:34;;;;;;;0.63;0.63;;;;;;;5.24;100.00;101765.50;4952204;28;20035;-66
2023/01/29 04:58:32;;;;;;;0.28;0.28;;;;;;;5.17;100.00;101773.06;4952693;28;20059;-65
2023/01/29 05:00:59;;;;;;;0.30;0.30;;;;;;;5.38;100.00;101777.03;4952557;29;20035;-67
2023/01/29 05:03:27;;;;;;;0.22;0.22;;;;;;;5.56;100.00;101780.72;4949868;28;20035;-66
2023/01/29 05:05:54;;;;;;;0.40;0.40;;;;;;;5.49;100.00;101765.09;4952094;29;20043;-65
2023/01/29 05:08:23;;;;;;;0.38;0.35;;;;;;;5.58;100.00;101773.22;4965328;28;20118;-66
2023/01/29 05:10:52;;;;;;;0.50;0.50;;;;;;;5.53;100.00;101770.63;4952637;28;20493;-67
2023/01/29 05:13:20;;;;;;;0.45;0.40;;;;;;;5.52;100.00;101775.19;4952544;28;20054;-66
2023/01/29 05:15:51;;;;;;;4.05;0.82;;;;;;;5.66;100.00;101748.50;4952011;29;20129;-67
2023/01/29 05:18:16;;;;;;;0.40;0.40;;;;;;;5.74;100.00;101761.19;4950188;29;20043;-66
2023/01/29 05:20:43;;;;;;;0.38;0.38;;;;;;;5.52;100.00;101759.16;4951999;29;20031;-65
2023/01/29 05:23:20;;;;;;;0.57;0.57;;;;;;;5.67;100.00;101755.44;4952819;29;20445;-64
2023/01/29 05:25:47;;;;;;;0.30;0.30;;;;;;;5.56;100.00;101738.78;4967506;28;20412;-65
2023/01/29 05:28:15;;;;;;;0.20;0.20;;;;;;;5.81;100.00;101745.53;4947916;28;20034;-66
2023/01/29 05:30:43;;;;;;;0.47;0.47;;;;;;;5.83;100.00;101746.88;4951054;29;20101;-65
2023/01/29 05:33:17;;;;;;;1.00;0.30;;;;;;;5.65;100.00;101744.25;4950408;29;20039;-66
2023/01/29 05:35:44;;;;;;;0.30;0.30;;;;;;;5.69;100.00;101756.72;4950951;29;20070;-66
2023/01/29 05:38:09;;;;;;;0.30;0.30;;;;;;;5.72;100.00;101763.34;4952408;29;20140;-65
2023/01/29 05:40:36;;;;;;;0.20;0.20;;;;;;;5.57;100.00;101756.41;4951851;29;20624;-64
2023/01/29 05:43:02;;;;;;;0.30;0.30;;;;;;;5.50;100.00;101745.28;4948758;28;20037;-66
2023/01/29 05:45:27;;;;;;;0.38;0.38;;;;;;;5.48;100.00;101742.13;4951540;28;20039;-65
2023/01/29 05:47:59;;;;;;;0.25;0.25;;;;;;;5.58;100.00;101741.94;4951537;29;20035;-65
2023/01/29 05:50:26;;;;;;;0.30;0.30;;;;;;;5.63;100.00;101738.41;4951655;29;20050;-65
2023/01/29 05:52:58;;;;;;;0.30;0.30;;;;;;;5.48;100.00;101744.78;4965333;28;20070;-64
2023/01/29 05:55:24;;;;;;;0.35;0.35;;;;;;;5.59;100.00;101732.88;4946451;29;20405;-65
2023/01/29 05:57:49;;;;;;;0.47;0.47;;;;;;;5.68;100.00;101738.31;4952032;29;20027;-65
2023/01/29 06:00:15;;;;;;;0.40;0.40;;;;;;;5.79;100.00;101748.50;4948308;29;20503;-66
2023/01/29 06:02:40;;;;;;;0.20;0.20;;;;;;;5.76;100.00;101757.13;4947482;29;20126;-65
2023/01/29 06:05:06;;;;;;;0.40;0.40;;;;;;;5.76;100.00;101762.47;4952152;29;20170;-65
2023/01/29 06:07:32;;;;;;;1.45;0.85;;;;;;;5.62;100.00;101756.31;4952505;28;20078;-65
2023/01/29 06:09:57;;;;;;;0.40;0.40;;;;;;;5.75;100.00;101760.09;4951443;28;20507;-64
2023/01/29 06:12:23;;;;;;;0.50;0.50;;;;;;;5.69;100.00;101766.63;4951073;28;20062;-66
2023/01/29 06:14:48;;;;;;;0.63;0.63;;;;;;;5.74;100.00;101755.84;4950800;29;20085;-65
2023/01/29 06:17:14;;;;;;;1.15;0.55;;;;;;;5.71;100.00;101743.84;4949420;28;20039;-65
2023/01/29 06:19:39;;;;;;;0.20;0.20;;;;;;;5.72;100.00;101742.78;4950963;29;20035;-65
2023/01/29 06:22:04;;;;;;;0.57;0.55;;;;;;;5.71;100.00;101740.41;4951376;28;20054;-65
2023/01/29 06:24:31;;;;;;;0.30;0.30;;;;;;;5.65;100.00;101722.88;4948645;29;20046;-66
2023/01/29 06:26:57;;;;;;;0.35;0.35;;;;;;;5.69;100.00;101715.84;4949778;29;20039;-65
2023/01/29 06:29:22;;;;;;;0.50;0.50;;;;;;;5.78;100.00;101712.19;4951759;28;20042;-65
2023/01/29 06:31:48;;;;;;;2.50;0.47;;;;;;;5.89;100.00;101723.50;4949748;29;20876;-65
2023/01/29 06:34:13;;;;;;;1.55;0.73;;;;;;;5.88;99.80;101712.03;4949438;29;20047;-65
2023/01/29 06:36:40;;;;;;;0.90;0.68;;;;;;;5.71;100.00;101725.16;4951090;29;20098;-66
2023/01/29 06:39:05;;;;;;;0.45;0.40;;;;;;;5.81;100.00;101721.50;4950967;28;20475;-66
2023/01/29 06:41:31;;;;;;;0.25;0.25;;;;;;;5.78;100.00;101717.56;4949568;28;20035;-65
2023/01/29 06:43:56;;;;;;;0.40;0.40;;;;;;;5.78;100.00;101706.06;4946710;29;20062;-66
2023/01/29 06:46:22;;;;;;;0.75;0.73;;;;;;;5.80;100.00;101704.69;4951302;28;20420;-65
2023/01/29 06:48:47;;;;;;;0.30;0.30;;;;;;;5.60;100.00;101691.69;4951886;28;20416;-66
2023/01/29 06:51:12;;;;;;;0.60;0.60;;;;;;;5.76;100.00;101692.19;4950195;29;20109;-66
2023/01/29 06:53:38;;;;;;;2.15;0.90;;;;;;;5.77;100.00;101680.44;4951056;28;20031;-63
2023/01/29 06:56:05;;;;;;;0.40;0.40;;;;;;;5.70;100.00;101680.03;4960681;28;20556;-65
2023/01/29 06:58:31;;;;;;;0.40;0.40;;;;;;;5.76;100.00;101674.28;4951596;28;20027;-65
2023/01/29 07:01:07;;;;;;;0.47;0.47;;;;;;;5.70;99.84;101672.00;4949561;28;20046;-66
2023/01/29 07:03:33;;;;;;;0.47;0.47;;;;;;;5.45;100.00;101667.94;4949414;28;20433;-65
2023/01/29 07:05:58;;;;;;;0.50;0.50;;;;;;;5.40;100.00;101678.72;4950032;29;20058;-66
2023/01/29 07:08:24;;;;;;;0.20;0.20;;;;;;;5.49;100.00;101679.63;4943326;28;20048;-65
2023/01/29 07:10:49;;;;;;;1.55;0.75;;;;;;;5.65;99.33;101694.28;4947214;29;20447;-65
2023/01/29 07:13:15;;;;;;;0.38;0.38;;;;;;;5.58;99.48;101685.84;4948022;29;20061;-64
2023/01/29 07:15:41;;;;;;;0.57;0.57;;;;;;;5.52;99.87;101678.25;4945998;29;20404;-64
2023/01/29 07:18:11;;;;;;;0.20;0.20;;;;;;;5.59;99.61;101684.78;4951148;28;20026;-65
2023/01/29 07:20:38;;;;;;;0.30;0.30;;;;;;;5.54;99.96;101679.50;4950061;28;20043;-65
2023/01/29 07:23:04;;;;;;;0.30;0.30;;;;;;;5.47;100.00;101690.59;4962724;23;20050;-68
2023/01/29 07:25:30;;;;;;;0.90;0.90;;;;;;;5.56;99.67;101704.06;5589715;23;21017;-70
2023/01/29 07:27:58;;;;;;;0.20;0.20;;;;;;;5.56;99.16;101684.56;4998986;23;20476;-66
2023/01/29 07:30:24;;;;;;;0.40;0.40;;;;;;;5.49;99.28;101688.44;4953179;23;20043;-51
2023/01/29 07:32:49;;;;;;;0.98;0.98;;;;;;;5.45;99.52;101691.97;4953217;28;20094;-55
2023/01/29 07:35:15;;;;;;;0.63;0.63;;;;;;;5.50;100.00;101682.00;4952601;28;20067;-56
2023/01/29 07:37:40;;;;;;;0.30;0.30;;;;;;;5.57;99.16;101683.47;4952704;28;20042;-50
2023/01/29 07:40:10;;;;;;;0.65;0.60;;;;;;;5.57;98.61;101681.63;4952157;28;20047;-53
2023/01/29 07:42:58;;;;;;;1.67;0.60;;;;;;;5.52;98.94;101663.00;4953614;28;20043;-55
2023/01/29 07:45:26;;;;;;;2.38;0.52;;;;;;;5.63;98.72;101639.56;4974068;23;20053;-66
2023/01/29 07:47:53;;;;;;;0.38;0.38;;;;;;;5.59;98.54;101642.03;4967744;28;20035;-66
2023/01/29 07:50:18;;;;;;;1.60;1.10;;;;;;;5.50;98.78;101641.13;4966327;28;20104;-66
2023/01/29 07:52:44;;;;;;;0.50;0.50;;;;;;;5.59;98.56;101641.25;4970087;28;20118;-66
2023/01/29 07:55:09;;;;;;;1.02;1.02;;;;;;;5.62;97.56;101637.97;4982254;28;20190;-65
2023/01/29 07:57:34;;;;;;;0.55;0.55;;;;;;;5.50;97.37;101641.94;4968101;28;20041;-66
2023/01/29 08:00:00;;;;;;;0.55;0.55;;;;;;;5.58;97.04;101636.97;4969878;28;20432;-66
2023/01/29 08:02:25;;;;;;;0.55;0.55;;;;;;;5.48;97.64;101653.97;4971640;28;20403;-66
2023/01/29 08:04:51;;;;;;;0.32;0.32;;;;;;;5.40;97.66;101649.34;4972641;28;20039;-66
2023/01/29 08:07:16;;;;;;;0.38;0.38;;;;;;;5.27;98.72;101645.56;4965211;28;20045;-66
2023/01/29 08:09:41;;;;;;;1.88;0.70;;;;;;;5.33;98.44;101638.25;4971662;28;20117;-66
2023/01/29 08:12:07;;;;;;;0.60;0.60;;;;;;;5.43;98.51;101646.88;4972101;28;20045;-66
2023/01/29 08:14:32;;;;;;;0.32;0.32;;;;;;;5.53;97.54;101634.41;4972048;28;20053;-66
2023/01/29 08:16:58;;;;;;;0.43;0.43;;;;;;;5.40;97.59;101641.34;4970996;28;20443;-66
2023/01/29 08:19:23;;;;;;;0.52;0.52;;;;;;;5.25;98.85;101634.38;4987532;28;20058;-66
2023/01/29 08:21:48;;;;;;;1.20;1.05;;;;;;;5.33;98.21;101630.22;4970442;28;20034;-66
2023/01/29 08:24:14;;;;;;;0.40;0.38;;;;;;;5.20;99.59;101631.81;4968649;28;20389;-66
2023/01/29 08:26:39;;;;;;;0.52;0.52;;;;;;;5.23;99.04;101639.22;4966925;28;20090;-66
2023/01/29 08:29:05;;;;;;;0.20;0.20;;;;;;;5.29;99.39;101647.94;4969600;28;20038;-66
2023/01/29 08:31:30;;;;;;;0.75;0.75;;;;;;;5.48;98.55;101657.44;4971613;28;20037;-66
2023/01/29 08:33:56;;;;;;;1.15;0.68;;;;;;;5.50;98.11;101655.28;4969537;28;20451;-66
2023/01/29 08:36:21;;;;;;;0.70;0.70;;;;;;;5.62;97.11;101651.31;4968548;28;20074;-66
2023/01/29 08:38:47;;;;;;;3.42;0.75;;;;;;;5.59;97.80;101649.25;4966412;28;20150;-66
2023/01/29 08:41:12;;;;;;;0.63;0.63;;;;;;;5.69;97.15;101651.75;4968893;28;20479;-66
2023/01/29 08:43:37;;;;;;;0.68;0.68;;;;;;;5.78;96.58;101652.63;4970027;28;20126;-67
2023/01/29 08:46:04;;;;;;;0.35;0.35;;;;;;;5.67;96.67;101643.22;4972494;28;20039;-66
2023/01/29 08:48:30;;;;;;;0.60;0.60;;;;;;;5.64;97.23;101649.16;4972626;28;20038;-67
2023/01/29 08:50:58;;;;;;;0.90;0.90;;;;;;;5.55;97.31;101642.91;4970594;28;20655;-66
2023/01/29 08:53:24;;;;;;;0.40;0.40;;;;;;;5.22;99.40;101636.84;4985855;28;20050;-66
2023/01/29 08:55:50;;;;;;;0.43;0.43;;;;;;;5.47;98.92;101644.41;4972229;28;20038;-66
2023/01/29 08:58:16;;;;;;;0.40;0.40;;;;;;;5.42;98.27;101636.47;4967901;28;20035;-67
2023/01/29 09:00:41;;;;;;;0.82;0.70;;;;;;;5.67;98.20;101632.53;4965048;28;20031;-66
2023/01/29 09:03:07;;;;;;;0.25;0.25;;;;;;;5.71;97.76;101644.22;4970362;28;20101;-66
2023/01/29 09:05:34;;;;;;;0.50;0.50;;;;;;;5.61;98.03;101644.41;4971421;28;20041;-66
2023/01/29 09:07:59;;;;;;;0.47;0.47;;;;;;;5.64;98.67;101638.47;4981814;28;20119;-66
2023/01/29 09:10:25;;;;;;;1.10;0.93;;;;;;;5.69;98.90;101646.41;4970026;28;20109;-65
2023/01/29 09:12:50;;;;;;;0.82;0.82;;;;;;;5.66;97.77;101647.78;4971285;28;20488;-66
2023/01/29 09:15:16;;;;;;;0.60;0.60;;;;;;;5.63;98.95;101647.56;4969941;28;20042;-67
2023/01/29 09:17:42;;;;;;;1.17;1.08;;;;;;;5.63;98.86;101647.56;4967198;28;20038;-66
2023/01/29 09:20:08;;;;;;;1.33;1.23;;;;;;;5.69;98.89;101651.75;4971774;28;20037;-66
2023/01/29 09:22:34;;;;;;;0.43;0.43;;;;;;;5.68;98.61;101645.59;4968930;28;20093;-66
2023/01/29 09:24:59;;;;;;;0.75;0.50;;;;;;;5.82;98.11;101645.59;4984282;28;20471;-65
2023/01/29 09:27:24;;;;;;;0.60;0.60;;;;;;;5.85;98.55;101631.66;4987290;28;20503;-66
2023/01/29 09:29:50;;;;;;;0.68;0.68;;;;;;;5.91;98.32;101635.81;4971393;28;20496;-67
2023/01/29 09:32:15;;;;;;;3.85;0.80;;;;;;;5.96;96.98;101641.84;4972030;28;20519;-65
2023/01/29 09:34:41;;;;;;;1.67;1.55;;;;;;;6.08;97.38;101627.94;4971775;28;20031;-66
2023/01/29 09:37:07;;;;;;;0.30;0.30;;;;;;;6.01;96.74;101617.69;4969578;28;20031;-65
2023/01/29 09:39:32;;;;;;;0.40;0.40;;;;;;;5.91;98.01;101622.44;4970183;28;20117;-65
2023/01/29 09:42:11;;;;;;;0.40;0.40;;;;;;;5.96;98.34;101614.34;4970727;28;20042;-64
2023/01/29 09:44:55;;;;;;;0.60;0.60;;;;;;;6.09;97.10;101608.97;4984672;28;20403;-65
2023/01/29 09:47:24;;;;;;;0.40;0.40;;;;;;;6.00;97.07;101618.75;4966133;28;20499;-65
2023/01/29 09:49:57;;;;;;;0.93;0.60;;;;;;;5.99;97.95;101611.84;4960013;28;21280;-68
2023/01/29 09:52:26;;;;;;;0.95;0.95;;;;;;;6.08;96.88;101604.69;4966028;28;20109;-65
2023/01/29 09:55:04;;;;;;;1.00;0.80;;;;;;;5.80;98.45;101597.00;4966706;28;20038;-65
2023/01/29 09:57:40;;;;;;;1.00;1.00;;;;;;;5.90;98.69;101583.44;4979816;28;20034;-66
2023/01/29 10:00:12;;;;;;;0.70;0.70;;;;;;;5.91;99.38;101582.34;4969095;28;20062;-65
2023/01/29 10:02:52;;;;;;;1.58;0.77;;;;;;;5.93;99.24;101583.63;4985373;28;20550;-65
2023/01/29 10:05:23;;;;;;;1.50;1.02;;;;;;;5.88;100.00;101566.94;4966722;28;20054;-67
2023/01/29 10:08:16;;;;;;;0.98;0.93;;;;;;;5.86;100.00;101569.09;4969632;28;20604;-65
2023/01/29 10:10:53;;;;;;;0.80;0.80;;;;;;;5.78;100.00;101575.13;4966950;28;20139;-66
2023/01/29 10:13:46;;;;;;;2.17;0.93;;;;;;;6.04;99.35;101560.94;4969832;28;20038;-66
2023/01/29 10:16:26;;;;;;;0.63;0.63;;;;;;;6.02;99.79;101563.13;4968850;28;20609;-64
2023/01/29 10:19:10;;;;;;;2.00;1.42;;;;;;;5.92;100.00;101557.22;4969865;28;20030;-64
2023/01/29 10:21:57;;;;;;;1.50;1.45;;;;;;;6.04;100.00;101552.91;4962655;28;20076;-65
2023/01/29 10:24:30;;;;;;;0.60;0.60;;;;;;;6.01;100.00;101542.84;4979760;28;20030;-66
2023/01/29 10:26:57;;;;;;;0.88;0.88;;;;;;;5.94;100.00;101539.00;4966200;28;20126;-65
2023/01/29 10:29:25;;;;;;;0.82;0.80;;;;;;;5.79;100.00;101536.63;4967901;28;20041;-64
2023/01/29 10:32:03;;;;;;;0.70;0.70;;;;;;;5.82;100.00;101528.81;4966965;28;22075;-65
2023/01/29 10:34:44;;;;;;;0.77;0.77;;;;;;;6.05;100.00;101532.31;4965354;28;20043;-66
2023/01/29 10:37:27;;;;;;;0.73;0.70;;;;;;;6.15;100.00;101521.41;4966559;28;20027;-65
2023/01/29 10:39:52;;;;;;;0.70;0.70;;;;;;;6.26;99.46;101517.38;4982670;28;20062;-64
2023/01/29 10:42:39;;;;;;;0.93;0.93;;;;;;;6.39;99.75;101511.16;4968244;28;20066;-65
2023/01/29 10:45:26;;;;;;;1.40;1.13;;;;;;;6.35;99.25;101510.19;4964456;28;20399;-65
2023/01/29 10:48:12;;;;;;;1.40;0.93;;;;;;;6.24;99.41;101507.00;4965450;28;20047;-67
2023/01/29 10:50:57;;;;;;;0.55;0.55;;;;;;;6.28;100.00;101504.50;4966769;28;20058;-65
2023/01/29 10:53:59;;;;;;;0.68;0.68;;;;;;;6.13;100.00;101502.19;4967688;28;20555;-65
2023/01/29 10:56:43;;;;;;;1.55;0.63;;;;;;;6.17;100.00;101498.63;4969149;28;20038;-65
2023/01/29 10:59:27;;;;;;;0.43;0.43;;;;;;;5.96;100.00;101489.47;4973445;28;20109;-65
2023/01/29 11:02:08;;;;;;;0.40;0.40;;;;;;;6.07;100.00;101487.38;4972243;28;20035;-65
2023/01/29 11:04:35;;;;;;;1.97;1.73;;;;;;;6.17;100.00;101501.28;4987508;28;20034;-64
2023/01/29 11:07:00;;;;;;;0.82;0.82;;;;;;;6.33;100.00;101494.47;4967916;28;20294;-66
2023/01/29 11:09:31;;;;;;;0.63;0.63;;;;;;;6.42;100.00;101489.19;4973534;28;20045;-65
2023/01/29 11:12:04;;;;;;;1.42;1.33;;;;;;;6.34;100.00;101482.69;4964254;28;20480;-65
2023/01/29 11:14:35;;;;;;;0.98;0.77;;;;;;;6.36;100.00;101475.16;4970131;28;20038;-65
2023/01/29 11:17:01;;;;;;;;;;;;;;;6.39;99.78;101484.44;4970520;28;20035;-66
2023/01/29 11:19:41;;;;;;;1.30;0.93;;;;;;;6.54;99.80;101480.59;4966835;28;19921;-65
2023/01/29 11:22:18;;;;;;;0.57;0.50;;;;;;;6.42;99.64;101493.72;4962361;28;20474;-64
2023/01/29 11:24:45;;;;;;;0.85;0.85;;;;;;;6.46;99.72;101486.69;4964571;28;20043;-67
2023/01/29 11:27:25;;;;;;;0.98;0.85;;;;;;;6.46;99.78;101490.16;4963945;28;20042;-65
2023/01/29 11:29:52;;;;;;;0.82;0.40;;;;;;;6.25;100.00;101494.44;4964507;28;20077;-65
2023/01/29 11:32:20;;;;;;;0.73;0.73;;;;;;;6.28;100.00;101488.47;4970849;28;20042;-66
2023/01/29 11:35:18;;;;;;;2.22;1.02;;;;;;;6.39;99.79;101479.88;4967101;28;20256;-66
2023/01/29 11:37:45;;;;;;;0.52;0.52;;;;;;;6.47;99.73;101473.00;4968120;28;20110;-66
2023/01/29 11:40:17;;;;;;;1.95;0.93;;;;;;;6.37;99.89;101471.38;4970963;28;20042;-65
2023/01/29 11:42:42;;;;;;;0.80;0.80;;;;;;;6.18;99.94;101459.28;4968825;28;20066;-65
2023/01/29 11:45:31;;;;;;;0.60;0.60;;;;;;;6.37;99.76;101454.53;4981113;28;20133;-65
2023/01/29 11:47:57;;;;;;;0.63;0.63;;;;;;;6.33;99.16;101465.03;4972635;28;20035;-65
2023/01/29 11:50:26;;;;;;;2.60;1.25;;;;;;;6.42;99.40;101451.72;4968321;28;20033;-66
2023/01/29 11:52:52;;;;;;;0.95;0.95;;;;;;;6.43;99.28;101449.84;4971439;28;20031;-65
2023/01/29 11:55:21;;;;;;;0.43;0.43;;;;;;;6.26;99.97;101443.31;4971115;28;20065;-65
2023/01/29 11:57:56;;;;;;;0.63;0.63;;;;;;;6.26;99.63;101432.59;4979134;28;20034;-64
2023/01/29 12:00:30;;;;;;;1.42;1.08;;;;;;;6.40;98.73;101427.19;4974109;28;20038;-65
2023/01/29 12:03:26;;;;;;;0.75;0.75;;;;;;;6.43;98.50;101431.91;4985496;28;20043;-65
2023/01/29 12:06:02;;;;;;;1.25;1.00;;;;;;;6.26;98.35;101421.13;4963118;28;20039;-67
2023/01/29 12:08:35;;;;;;;1.05;0.82;;;;;;;6.24;99.01;101417.97;4968943;28;20419;-65
2023/01/29 12:11:14;;;;;;;0.50;0.50;;;;;;;6.16;99.64;101408.00;4970047;28;20027;-65
2023/01/29 12:13:42;;;;;;;1.77;1.42;;;;;;;6.26;98.76;101405.88;4972684;28;20042;-64
2023/01/29 12:16:26;;;;;;;0.90;0.85;;;;;;;6.29;98.39;101410.59;4988151;28;20038;-66
2023/01/29 12:19:25;;;;;;;0.73;0.73;;;;;;;6.53;97.85;101399.53;4964798;28;20066;-66
2023/01/29 12:22:07;;;;;;;0.52;0.52;;;;;;;6.44;98.30;101388.03;4963175;28;20104;-65